Beland, Oklahoma
Current Conditions -  °F | °C
As of 4:53 AM on Friday 24 Oct 2014 (Local Time) from KMKO Reporting Station
Overcast Overcast  
Wind Chill: 55°   Ceiling: 5000
Heat Index: 55°   Visibility: 7mi
Dew Point: 53°   Wind: 6mph
Humidity: 93%   Direction: 170°S
Pressure: 30.13"   Gusts: NA
Location:  35.6818°N, 95.3578°W
Report Text: KMKO 240953Z AUTO 17005KT 7SM OVC050 13/12 A3013 RMK AO2 SLP201 T01280117
Loading
Personal Weather Stations






























Interactive Weather Map New forecast layout! Learn more

10-Day Weather Forecast

Advertisements
Track Severe Weather on mobile